sensor_id;sensor_type;location;lat;lon;timestamp;P1;durP1;ratioP1;P2;durP2;ratioP2
62707;SDS011;48769;51.624;5.886;2023-06-26T00:01:27;24.63;;;20.17;;
62707;SDS011;48769;51.624;5.886;2023-06-26T00:03:56;25.38;;;20.92;;
62707;SDS011;48769;51.624;5.886;2023-06-26T00:06:25;23.00;;;20.60;;
62707;SDS011;48769;51.624;5.886;2023-06-26T00:08:54;23.20;;;20.58;;
62707;SDS011;48769;51.624;5.886;2023-06-26T00:11:20;21.38;;;19.27;;
62707;SDS011;48769;51.624;5.886;2023-06-26T00:13:46;23.80;;;20.38;;
62707;SDS011;48769;51.624;5.886;2023-06-26T00:16:12;23.95;;;21.38;;
62707;SDS011;48769;51.624;5.886;2023-06-26T00:18:38;23.40;;;20.52;;
62707;SDS011;48769;51.624;5.886;2023-06-26T00:21:03;24.42;;;20.80;;
62707;SDS011;48769;51.624;5.886;2023-06-26T00:23:29;24.50;;;22.08;;
62707;SDS011;48769;51.624;5.886;2023-06-26T00:25:56;23.85;;;20.38;;
62707;SDS011;48769;51.624;5.886;2023-06-26T00:28:21;25.90;;;22.05;;
62707;SDS011;48769;51.624;5.886;2023-06-26T00:30:47;23.52;;;21.23;;
62707;SDS011;48769;51.624;5.886;2023-06-26T00:33:12;25.83;;;22.65;;
62707;SDS011;48769;51.624;5.886;2023-06-26T00:35:37;25.83;;;23.13;;
62707;SDS011;48769;51.624;5.886;2023-06-26T00:38:02;25.98;;;23.35;;
62707;SDS011;48769;51.624;5.886;2023-06-26T00:40:28;24.98;;;22.48;;
62707;SDS011;48769;51.624;5.886;2023-06-26T00:42:53;26.33;;;22.52;;
62707;SDS011;48769;51.624;5.886;2023-06-26T00:45:19;25.58;;;22.90;;
62707;SDS011;48769;51.624;5.886;2023-06-26T00:47:44;25.88;;;23.38;;
62707;SDS011;48769;51.624;5.886;2023-06-26T00:50:10;25.40;;;22.90;;
62707;SDS011;48769;51.624;5.886;2023-06-26T00:52:35;26.30;;;22.05;;
62707;SDS011;48769;51.624;5.886;2023-06-26T00:55:02;27.80;;;22.67;;
62707;SDS011;48769;51.624;5.886;2023-06-26T00:57:27;26.13;;;23.52;;
62707;SDS011;48769;51.624;5.886;2023-06-26T00:59:52;24.88;;;22.52;;
62707;SDS011;48769;51.624;5.886;2023-06-26T01:02:18;24.52;;;22.13;;
62707;SDS011;48769;51.624;5.886;2023-06-26T01:04:46;27.70;;;23.23;;
62707;SDS011;48769;51.624;5.886;2023-06-26T01:07:15;25.05;;;22.33;;
62707;SDS011;48769;51.624;5.886;2023-06-26T01:09:43;26.20;;;21.98;;
62707;SDS011;48769;51.624;5.886;2023-06-26T01:12:12;23.77;;;21.23;;
62707;SDS011;48769;51.624;5.886;2023-06-26T01:14:38;22.80;;;20.55;;
62707;SDS011;48769;51.624;5.886;2023-06-26T01:17:04;21.15;;;19.17;;
62707;SDS011;48769;51.624;5.886;2023-06-26T01:19:30;19.88;;;17.88;;
62707;SDS011;48769;51.624;5.886;2023-06-26T01:24:33;19.30;;;17.40;;
62707;SDS011;48769;51.624;5.886;2023-06-26T01:27:01;18.08;;;16.17;;
62707;SDS011;48769;51.624;5.886;2023-06-26T01:29:28;16.92;;;15.07;;
62707;SDS011;48769;51.624;5.886;2023-06-26T01:31:57;17.42;;;15.45;;
62707;SDS011;48769;51.624;5.886;2023-06-26T01:34:23;16.67;;;14.98;;
62707;SDS011;48769;51.624;5.886;2023-06-26T01:36:48;16.90;;;15.15;;
62707;SDS011;48769;51.624;5.886;2023-06-26T01:39:15;16.27;;;14.57;;
62707;SDS011;48769;51.624;5.886;2023-06-26T01:41:42;18.90;;;15.32;;
62707;SDS011;48769;51.624;5.886;2023-06-26T01:44:15;17.83;;;15.68;;
62707;SDS011;48769;51.624;5.886;2023-06-26T01:46:58;16.30;;;14.18;;
62707;SDS011;48769;51.624;5.886;2023-06-26T01:52:43;15.70;;;14.10;;
62707;SDS011;48769;51.624;5.886;2023-06-26T01:58:04;19.10;;;14.07;;
62707;SDS011;48769;51.624;5.886;2023-06-26T02:00:31;17.45;;;15.60;;
62707;SDS011;48769;51.624;5.886;2023-06-26T02:02:57;16.58;;;14.27;;
62707;SDS011;48769;51.624;5.886;2023-06-26T02:05:22;16.58;;;14.25;;
62707;SDS011;48769;51.624;5.886;2023-06-26T02:07:51;15.27;;;13.50;;
62707;SDS011;48769;51.624;5.886;2023-06-26T02:10:16;18.30;;;13.43;;
62707;SDS011;48769;51.624;5.886;2023-06-26T02:12:42;16.67;;;14.98;;
62707;SDS011;48769;51.624;5.886;2023-06-26T02:15:08;16.42;;;14.63;;
62707;SDS011;48769;51.624;5.886;2023-06-26T02:17:33;16.33;;;14.18;;
62707;SDS011;48769;51.624;5.886;2023-06-26T02:19:59;17.45;;;13.57;;
62707;SDS011;48769;51.624;5.886;2023-06-26T02:22:25;16.65;;;14.52;;
62707;SDS011;48769;51.624;5.886;2023-06-26T02:24:50;16.65;;;14.35;;
62707;SDS011;48769;51.624;5.886;2023-06-26T02:27:15;15.52;;;13.32;;
62707;SDS011;48769;51.624;5.886;2023-06-26T02:29:41;17.58;;;15.32;;
62707;SDS011;48769;51.624;5.886;2023-06-26T02:32:09;15.55;;;13.98;;
62707;SDS011;48769;51.624;5.886;2023-06-26T02:34:35;14.65;;;13.07;;
62707;SDS011;48769;51.624;5.886;2023-06-26T02:37:01;15.85;;;13.38;;
62707;SDS011;48769;51.624;5.886;2023-06-26T02:39:26;15.70;;;13.80;;
62707;SDS011;48769;51.624;5.886;2023-06-26T02:41:52;14.15;;;12.45;;
62707;SDS011;48769;51.624;5.886;2023-06-26T02:44:17;15.27;;;12.25;;
62707;SDS011;48769;51.624;5.886;2023-06-26T02:46:43;14.77;;;11.88;;
62707;SDS011;48769;51.624;5.886;2023-06-26T02:49:09;18.05;;;12.20;;
62707;SDS011;48769;51.624;5.886;2023-06-26T02:51:34;14.38;;;11.50;;
62707;SDS011;48769;51.624;5.886;2023-06-26T02:53:59;14.70;;;11.10;;
62707;SDS011;48769;51.624;5.886;2023-06-26T02:56:25;14.50;;;11.85;;
62707;SDS011;48769;51.624;5.886;2023-06-26T02:58:57;13.57;;;11.65;;
62707;SDS011;48769;51.624;5.886;2023-06-26T03:01:23;14.68;;;12.02;;
62707;SDS011;48769;51.624;5.886;2023-06-26T03:03:48;13.13;;;10.88;;
62707;SDS011;48769;51.624;5.886;2023-06-26T03:06:14;15.07;;;12.10;;
62707;SDS011;48769;51.624;5.886;2023-06-26T03:08:40;12.80;;;10.95;;
62707;SDS011;48769;51.624;5.886;2023-06-26T03:11:05;13.85;;;10.35;;
62707;SDS011;48769;51.624;5.886;2023-06-26T03:13:34;16.25;;;10.77;;
62707;SDS011;48769;51.624;5.886;2023-06-26T03:16:00;12.32;;;9.80;;
62707;SDS011;48769;51.624;5.886;2023-06-26T03:18:26;12.63;;;9.30;;
62707;SDS011;48769;51.624;5.886;2023-06-26T03:20:52;11.52;;;9.20;;
62707;SDS011;48769;51.624;5.886;2023-06-26T03:23:19;13.82;;;9.52;;
62707;SDS011;48769;51.624;5.886;2023-06-26T03:25:45;12.98;;;9.75;;
62707;SDS011;48769;51.624;5.886;2023-06-26T03:28:10;13.90;;;9.00;;
62707;SDS011;48769;51.624;5.886;2023-06-26T03:30:35;11.20;;;9.20;;
62707;SDS011;48769;51.624;5.886;2023-06-26T03:33:01;13.63;;;8.63;;
62707;SDS011;48769;51.624;5.886;2023-06-26T03:35:26;14.05;;;9.00;;
62707;SDS011;48769;51.624;5.886;2023-06-26T03:37:51;11.48;;;8.27;;
62707;SDS011;48769;51.624;5.886;2023-06-26T03:40:17;15.95;;;8.13;;
62707;SDS011;48769;51.624;5.886;2023-06-26T03:42:42;13.68;;;8.57;;
62707;SDS011;48769;51.624;5.886;2023-06-26T03:45:07;17.35;;;8.93;;
62707;SDS011;48769;51.624;5.886;2023-06-26T03:47:33;13.63;;;8.57;;
62707;SDS011;48769;51.624;5.886;2023-06-26T03:49:58;16.40;;;8.82;;
62707;SDS011;48769;51.624;5.886;2023-06-26T03:52:23;13.68;;;9.43;;
62707;SDS011;48769;51.624;5.886;2023-06-26T03:54:49;19.65;;;8.82;;
62707;SDS011;48769;51.624;5.886;2023-06-26T03:57:14;14.63;;;9.65;;
62707;SDS011;48769;51.624;5.886;2023-06-26T03:59:39;14.85;;;8.98;;
62707;SDS011;48769;51.624;5.886;2023-06-26T04:02:05;18.58;;;8.98;;
62707;SDS011;48769;51.624;5.886;2023-06-26T04:04:30;18.40;;;9.38;;
62707;SDS011;48769;51.624;5.886;2023-06-26T04:06:56;14.60;;;8.90;;
62707;SDS011;48769;51.624;5.886;2023-06-26T04:09:22;11.80;;;8.38;;
62707;SDS011;48769;51.624;5.886;2023-06-26T04:11:47;11.02;;;8.85;;
62707;SDS011;48769;51.624;5.886;2023-06-26T04:14:19;13.00;;;7.45;;
62707;SDS011;48769;51.624;5.886;2023-06-26T04:16:44;16.38;;;8.02;;
62707;SDS011;48769;51.624;5.886;2023-06-26T04:19:10;10.68;;;7.72;;
62707;SDS011;48769;51.624;5.886;2023-06-26T04:21:35;12.80;;;7.68;;
62707;SDS011;48769;51.624;5.886;2023-06-26T04:24:01;12.15;;;8.05;;
62707;SDS011;48769;51.624;5.886;2023-06-26T04:26:26;15.05;;;7.80;;
62707;SDS011;48769;51.624;5.886;2023-06-26T04:28:52;14.00;;;8.02;;
62707;SDS011;48769;51.624;5.886;2023-06-26T04:31:18;12.25;;;7.82;;
62707;SDS011;48769;51.624;5.886;2023-06-26T04:33:43;15.63;;;7.47;;
62707;SDS011;48769;51.624;5.886;2023-06-26T04:36:09;14.20;;;8.45;;
62707;SDS011;48769;51.624;5.886;2023-06-26T04:38:34;14.07;;;7.85;;
62707;SDS011;48769;51.624;5.886;2023-06-26T04:41:00;12.38;;;8.02;;
62707;SDS011;48769;51.624;5.886;2023-06-26T04:43:26;18.42;;;7.85;;
62707;SDS011;48769;51.624;5.886;2023-06-26T04:45:51;18.75;;;8.68;;
62707;SDS011;48769;51.624;5.886;2023-06-26T04:48:16;22.40;;;9.18;;
62707;SDS011;48769;51.624;5.886;2023-06-26T04:50:42;18.80;;;8.25;;
62707;SDS011;48769;51.624;5.886;2023-06-26T04:53:08;17.23;;;7.90;;
62707;SDS011;48769;51.624;5.886;2023-06-26T04:55:33;18.83;;;8.93;;
62707;SDS011;48769;51.624;5.886;2023-06-26T04:57:58;15.45;;;9.02;;
62707;SDS011;48769;51.624;5.886;2023-06-26T05:00:23;21.50;;;9.93;;
62707;SDS011;48769;51.624;5.886;2023-06-26T05:02:50;18.42;;;9.27;;
62707;SDS011;48769;51.624;5.886;2023-06-26T05:05:25;17.65;;;9.45;;
62707;SDS011;48769;51.624;5.886;2023-06-26T05:07:52;19.60;;;9.80;;
62707;SDS011;48769;51.624;5.886;2023-06-26T05:10:17;18.92;;;9.82;;
62707;SDS011;48769;51.624;5.886;2023-06-26T05:12:43;21.70;;;9.70;;
62707;SDS011;48769;51.624;5.886;2023-06-26T05:15:08;20.40;;;9.48;;
62707;SDS011;48769;51.624;5.886;2023-06-26T05:17:34;21.33;;;9.77;;
62707;SDS011;48769;51.624;5.886;2023-06-26T05:19:59;17.17;;;9.85;;
62707;SDS011;48769;51.624;5.886;2023-06-26T05:22:25;21.92;;;10.07;;
62707;SDS011;48769;51.624;5.886;2023-06-26T05:24:54;17.45;;;10.55;;
62707;SDS011;48769;51.624;5.886;2023-06-26T05:27:23;19.50;;;9.52;;
62707;SDS011;48769;51.624;5.886;2023-06-26T05:29:48;25.90;;;9.98;;
62707;SDS011;48769;51.624;5.886;2023-06-26T05:32:15;22.08;;;9.10;;
62707;SDS011;48769;51.624;5.886;2023-06-26T05:34:45;23.55;;;10.10;;
62707;SDS011;48769;51.624;5.886;2023-06-26T05:37:14;17.02;;;8.98;;
62707;SDS011;48769;51.624;5.886;2023-06-26T05:39:45;19.92;;;8.90;;
62707;SDS011;48769;51.624;5.886;2023-06-26T05:42:11;19.90;;;8.18;;
62707;SDS011;48769;51.624;5.886;2023-06-26T05:44:37;20.75;;;9.13;;
62707;SDS011;48769;51.624;5.886;2023-06-26T05:47:02;19.73;;;8.82;;
62707;SDS011;48769;51.624;5.886;2023-06-26T05:49:27;21.45;;;8.23;;
62707;SDS011;48769;51.624;5.886;2023-06-26T05:51:53;16.20;;;8.88;;
62707;SDS011;48769;51.624;5.886;2023-06-26T05:54:18;19.27;;;9.38;;
62707;SDS011;48769;51.624;5.886;2023-06-26T05:56:43;18.70;;;9.02;;
62707;SDS011;48769;51.624;5.886;2023-06-26T05:59:10;22.60;;;9.20;;
62707;SDS011;48769;51.624;5.886;2023-06-26T06:01:36;17.98;;;7.78;;
62707;SDS011;48769;51.624;5.886;2023-06-26T06:04:02;21.25;;;8.82;;
62707;SDS011;48769;51.624;5.886;2023-06-26T06:06:27;22.23;;;8.38;;
62707;SDS011;48769;51.624;5.886;2023-06-26T06:08:52;23.15;;;9.00;;
62707;SDS011;48769;51.624;5.886;2023-06-26T06:11:18;19.08;;;7.57;;
62707;SDS011;48769;51.624;5.886;2023-06-26T06:13:43;18.15;;;6.72;;
62707;SDS011;48769;51.624;5.886;2023-06-26T06:16:08;14.77;;;7.80;;
62707;SDS011;48769;51.624;5.886;2023-06-26T06:18:33;15.73;;;6.72;;
62707;SDS011;48769;51.624;5.886;2023-06-26T06:20:59;25.65;;;7.22;;
62707;SDS011;48769;51.624;5.886;2023-06-26T06:23:24;19.95;;;6.40;;
62707;SDS011;48769;51.624;5.886;2023-06-26T06:25:49;20.33;;;6.10;;
62707;SDS011;48769;51.624;5.886;2023-06-26T06:28:15;16.63;;;6.60;;
62707;SDS011;48769;51.624;5.886;2023-06-26T06:30:41;17.77;;;5.95;;
62707;SDS011;48769;51.624;5.886;2023-06-26T06:33:07;15.60;;;6.45;;
62707;SDS011;48769;51.624;5.886;2023-06-26T06:35:32;17.92;;;6.25;;
62707;SDS011;48769;51.624;5.886;2023-06-26T06:37:57;13.32;;;5.68;;
62707;SDS011;48769;51.624;5.886;2023-06-26T06:40:23;15.15;;;5.60;;
62707;SDS011;48769;51.624;5.886;2023-06-26T06:42:49;13.77;;;5.53;;
62707;SDS011;48769;51.624;5.886;2023-06-26T06:45:15;17.88;;;5.72;;
62707;SDS011;48769;51.624;5.886;2023-06-26T06:47:40;18.38;;;5.95;;
62707;SDS011;48769;51.624;5.886;2023-06-26T06:50:06;16.63;;;5.88;;
62707;SDS011;48769;51.624;5.886;2023-06-26T06:52:37;15.23;;;5.40;;
62707;SDS011;48769;51.624;5.886;2023-06-26T06:55:03;13.52;;;5.53;;
62707;SDS011;48769;51.624;5.886;2023-06-26T06:57:34;12.75;;;4.90;;
62707;SDS011;48769;51.624;5.886;2023-06-26T07:00:06;13.82;;;5.70;;
62707;SDS011;48769;51.624;5.886;2023-06-26T07:02:41;14.23;;;5.10;;
62707;SDS011;48769;51.624;5.886;2023-06-26T07:05:09;14.68;;;5.75;;
62707;SDS011;48769;51.624;5.886;2023-06-26T07:07:34;14.88;;;5.38;;
62707;SDS011;48769;51.624;5.886;2023-06-26T07:10:03;21.13;;;5.50;;
62707;SDS011;48769;51.624;5.886;2023-06-26T07:12:29;13.32;;;5.45;;
62707;SDS011;48769;51.624;5.886;2023-06-26T07:14:55;15.52;;;5.70;;
62707;SDS011;48769;51.624;5.886;2023-06-26T07:17:21;15.20;;;5.80;;
62707;SDS011;48769;51.624;5.886;2023-06-26T07:19:47;17.88;;;5.47;;
62707;SDS011;48769;51.624;5.886;2023-06-26T07:22:13;12.48;;;4.72;;
62707;SDS011;48769;51.624;5.886;2023-06-26T07:24:38;13.73;;;4.88;;
62707;SDS011;48769;51.624;5.886;2023-06-26T07:27:04;12.98;;;4.50;;
62707;SDS011;48769;51.624;5.886;2023-06-26T07:29:29;8.82;;;4.47;;
62707;SDS011;48769;51.624;5.886;2023-06-26T07:31:54;10.38;;;4.40;;
62707;SDS011;48769;51.624;5.886;2023-06-26T07:34:20;9.07;;;4.47;;
62707;SDS011;48769;51.624;5.886;2023-06-26T07:36:45;11.00;;;4.05;;
62707;SDS011;48769;51.624;5.886;2023-06-26T07:39:10;8.88;;;4.13;;
62707;SDS011;48769;51.624;5.886;2023-06-26T07:41:35;11.20;;;4.60;;
62707;SDS011;48769;51.624;5.886;2023-06-26T07:44:01;10.13;;;4.75;;
62707;SDS011;48769;51.624;5.886;2023-06-26T07:46:27;13.00;;;4.85;;
62707;SDS011;48769;51.624;5.886;2023-06-26T07:48:52;9.73;;;5.45;;
62707;SDS011;48769;51.624;5.886;2023-06-26T07:51:18;10.27;;;5.05;;
62707;SDS011;48769;51.624;5.886;2023-06-26T07:53:43;10.00;;;4.78;;
62707;SDS011;48769;51.624;5.886;2023-06-26T07:56:09;8.20;;;4.30;;
62707;SDS011;48769;51.624;5.886;2023-06-26T07:58:34;14.15;;;4.72;;
62707;SDS011;48769;51.624;5.886;2023-06-26T08:00:59;11.52;;;5.20;;
62707;SDS011;48769;51.624;5.886;2023-06-26T08:03:25;12.38;;;5.05;;
62707;SDS011;48769;51.624;5.886;2023-06-26T08:05:50;13.25;;;4.50;;
62707;SDS011;48769;51.624;5.886;2023-06-26T08:08:15;13.77;;;5.15;;
62707;SDS011;48769;51.624;5.886;2023-06-26T08:10:41;11.60;;;5.88;;
62707;SDS011;48769;51.624;5.886;2023-06-26T08:13:06;15.18;;;4.68;;
62707;SDS011;48769;51.624;5.886;2023-06-26T08:15:31;11.07;;;4.88;;
62707;SDS011;48769;51.624;5.886;2023-06-26T08:17:57;13.00;;;4.80;;
62707;SDS011;48769;51.624;5.886;2023-06-26T08:20:22;12.10;;;5.47;;
62707;SDS011;48769;51.624;5.886;2023-06-26T08:22:47;8.57;;;5.90;;
62707;SDS011;48769;51.624;5.886;2023-06-26T08:25:15;11.60;;;5.43;;
62707;SDS011;48769;51.624;5.886;2023-06-26T08:27:40;10.02;;;4.82;;
62707;SDS011;48769;51.624;5.886;2023-06-26T08:30:06;9.32;;;5.25;;
62707;SDS011;48769;51.624;5.886;2023-06-26T08:32:31;13.07;;;4.50;;
62707;SDS011;48769;51.624;5.886;2023-06-26T08:34:57;8.20;;;4.53;;
62707;SDS011;48769;51.624;5.886;2023-06-26T08:37:22;9.32;;;4.97;;
62707;SDS011;48769;51.624;5.886;2023-06-26T08:39:48;11.73;;;4.82;;
62707;SDS011;48769;51.624;5.886;2023-06-26T08:42:13;8.48;;;4.63;;
62707;SDS011;48769;51.624;5.886;2023-06-26T08:44:39;8.50;;;4.90;;
62707;SDS011;48769;51.624;5.886;2023-06-26T08:47:04;14.55;;;5.28;;
62707;SDS011;48769;51.624;5.886;2023-06-26T08:49:37;11.77;;;4.97;;
62707;SDS011;48769;51.624;5.886;2023-06-26T08:52:17;11.50;;;5.57;;
62707;SDS011;48769;51.624;5.886;2023-06-26T08:54:49;7.35;;;4.95;;
62707;SDS011;48769;51.624;5.886;2023-06-26T08:57:20;8.55;;;4.30;;
62707;SDS011;48769;51.624;5.886;2023-06-26T08:59:48;7.20;;;3.45;;
62707;SDS011;48769;51.624;5.886;2023-06-26T09:02:14;7.15;;;3.40;;
62707;SDS011;48769;51.624;5.886;2023-06-26T09:04:40;9.70;;;3.00;;
62707;SDS011;48769;51.624;5.886;2023-06-26T09:07:05;5.85;;;1.65;;
62707;SDS011;48769;51.624;5.886;2023-06-26T09:09:31;4.18;;;1.58;;
62707;SDS011;48769;51.624;5.886;2023-06-26T09:11:57;5.55;;;2.05;;
62707;SDS011;48769;51.624;5.886;2023-06-26T09:14:22;2.13;;;1.40;;
62707;SDS011;48769;51.624;5.886;2023-06-26T09:16:48;5.53;;;1.75;;
62707;SDS011;48769;51.624;5.886;2023-06-26T09:19:14;5.43;;;1.80;;
62707;SDS011;48769;51.624;5.886;2023-06-26T09:21:41;8.75;;;1.75;;
62707;SDS011;48769;51.624;5.886;2023-06-26T09:24:08;4.32;;;1.80;;
62707;SDS011;48769;51.624;5.886;2023-06-26T09:26:35;4.97;;;1.98;;
62707;SDS011;48769;51.624;5.886;2023-06-26T09:29:02;3.70;;;1.60;;
62707;SDS011;48769;51.624;5.886;2023-06-26T09:31:28;4.25;;;2.22;;
62707;SDS011;48769;51.624;5.886;2023-06-26T09:33:57;6.03;;;1.73;;
62707;SDS011;48769;51.624;5.886;2023-06-26T09:36:26;4.45;;;1.73;;
62707;SDS011;48769;51.624;5.886;2023-06-26T09:38:53;6.63;;;1.75;;
62707;SDS011;48769;51.624;5.886;2023-06-26T09:41:18;4.63;;;1.63;;
62707;SDS011;48769;51.624;5.886;2023-06-26T09:43:47;2.80;;;1.42;;
62707;SDS011;48769;51.624;5.886;2023-06-26T09:46:32;5.13;;;1.33;;
62707;SDS011;48769;51.624;5.886;2023-06-26T09:48:59;2.95;;;1.52;;
62707;SDS011;48769;51.624;5.886;2023-06-26T09:51:33;6.55;;;1.50;;
62707;SDS011;48769;51.624;5.886;2023-06-26T09:54:00;4.35;;;1.50;;
62707;SDS011;48769;51.624;5.886;2023-06-26T09:56:27;8.18;;;1.63;;
62707;SDS011;48769;51.624;5.886;2023-06-26T09:58:54;6.72;;;1.80;;
62707;SDS011;48769;51.624;5.886;2023-06-26T10:01:21;7.70;;;1.70;;
62707;SDS011;48769;51.624;5.886;2023-06-26T10:03:46;4.40;;;1.38;;
62707;SDS011;48769;51.624;5.886;2023-06-26T10:06:11;13.70;;;2.55;;
62707;SDS011;48769;51.624;5.886;2023-06-26T10:08:38;7.82;;;1.48;;
62707;SDS011;48769;51.624;5.886;2023-06-26T10:11:07;3.83;;;1.52;;
62707;SDS011;48769;51.624;5.886;2023-06-26T10:13:38;3.53;;;1.67;;
62707;SDS011;48769;51.624;5.886;2023-06-26T10:16:07;9.57;;;1.48;;
62707;SDS011;48769;51.624;5.886;2023-06-26T10:18:36;4.68;;;1.48;;
62707;SDS011;48769;51.624;5.886;2023-06-26T10:21:04;6.82;;;1.42;;
62707;SDS011;48769;51.624;5.886;2023-06-26T10:23:31;6.95;;;1.63;;
62707;SDS011;48769;51.624;5.886;2023-06-26T10:26:00;4.22;;;1.75;;
62707;SDS011;48769;51.624;5.886;2023-06-26T10:28:26;3.45;;;1.50;;
62707;SDS011;48769;51.624;5.886;2023-06-26T10:30:55;5.57;;;1.38;;
62707;SDS011;48769;51.624;5.886;2023-06-26T10:33:21;5.00;;;1.70;;
62707;SDS011;48769;51.624;5.886;2023-06-26T10:35:47;6.10;;;1.48;;
62707;SDS011;48769;51.624;5.886;2023-06-26T10:38:14;4.63;;;1.55;;
62707;SDS011;48769;51.624;5.886;2023-06-26T10:40:40;6.40;;;1.65;;
62707;SDS011;48769;51.624;5.886;2023-06-26T10:43:08;4.65;;;1.30;;
62707;SDS011;48769;51.624;5.886;2023-06-26T10:45:34;3.67;;;1.40;;
62707;SDS011;48769;51.624;5.886;2023-06-26T10:48:01;6.95;;;1.30;;
62707;SDS011;48769;51.624;5.886;2023-06-26T10:50:27;5.47;;;1.20;;
62707;SDS011;48769;51.624;5.886;2023-06-26T10:55:59;4.25;;;1.33;;
62707;SDS011;48769;51.624;5.886;2023-06-26T11:01:25;6.70;;;1.23;;
62707;SDS011;48769;51.624;5.886;2023-06-26T11:04:12;4.32;;;1.38;;
62707;SDS011;48769;51.624;5.886;2023-06-26T11:06:39;4.30;;;1.50;;
62707;SDS011;48769;51.624;5.886;2023-06-26T11:14:23;3.13;;;1.50;;
62707;SDS011;48769;51.624;5.886;2023-06-26T11:16:50;7.20;;;1.27;;
62707;SDS011;48769;51.624;5.886;2023-06-26T11:19:17;4.10;;;1.25;;
62707;SDS011;48769;51.624;5.886;2023-06-26T11:21:43;8.00;;;1.52;;
62707;SDS011;48769;51.624;5.886;2023-06-26T11:24:09;4.90;;;1.05;;
62707;SDS011;48769;51.624;5.886;2023-06-26T11:26:39;7.22;;;1.27;;
62707;SDS011;48769;51.624;5.886;2023-06-26T11:31:35;4.22;;;1.05;;
62707;SDS011;48769;51.624;5.886;2023-06-26T11:34:06;4.03;;;1.40;;
62707;SDS011;48769;51.624;5.886;2023-06-26T11:36:36;7.95;;;1.30;;
62707;SDS011;48769;51.624;5.886;2023-06-26T11:39:03;5.95;;;1.42;;
62707;SDS011;48769;51.624;5.886;2023-06-26T11:41:34;4.97;;;1.35;;
62707;SDS011;48769;51.624;5.886;2023-06-26T11:44:03;1.58;;;1.10;;
62707;SDS011;48769;51.624;5.886;2023-06-26T11:46:30;4.72;;;1.10;;
62707;SDS011;48769;51.624;5.886;2023-06-26T11:48:55;10.57;;;2.53;;
62707;SDS011;48769;51.624;5.886;2023-06-26T11:51:21;2.72;;;1.00;;
62707;SDS011;48769;51.624;5.886;2023-06-26T11:53:46;2.25;;;0.93;;
62707;SDS011;48769;51.624;5.886;2023-06-26T11:56:16;4.43;;;1.48;;
62707;SDS011;48769;51.624;5.886;2023-06-26T11:58:55;2.75;;;1.20;;
62707;SDS011;48769;51.624;5.886;2023-06-26T12:01:34;3.65;;;1.30;;
62707;SDS011;48769;51.624;5.886;2023-06-26T12:04:05;5.25;;;1.67;;
62707;SDS011;48769;51.624;5.886;2023-06-26T12:06:36;3.63;;;1.23;;
62707;SDS011;48769;51.624;5.886;2023-06-26T12:09:05;7.22;;;1.38;;
62707;SDS011;48769;51.624;5.886;2023-06-26T12:11:35;3.40;;;1.38;;
62707;SDS011;48769;51.624;5.886;2023-06-26T12:14:02;4.72;;;1.40;;
62707;SDS011;48769;51.624;5.886;2023-06-26T12:16:30;5.60;;;1.15;;
62707;SDS011;48769;51.624;5.886;2023-06-26T12:19:02;3.78;;;1.00;;
62707;SDS011;48769;51.624;5.886;2023-06-26T12:24:03;8.10;;;1.58;;
62707;SDS011;48769;51.624;5.886;2023-06-26T12:26:29;7.57;;;1.50;;
62707;SDS011;48769;51.624;5.886;2023-06-26T12:29:29;2.15;;;1.27;;
62707;SDS011;48769;51.624;5.886;2023-06-26T12:31:53;4.93;;;1.05;;
62707;SDS011;48769;51.624;5.886;2023-06-26T12:34:19;6.22;;;1.13;;
62707;SDS011;48769;51.624;5.886;2023-06-26T12:36:49;3.35;;;1.10;;
62707;SDS011;48769;51.624;5.886;2023-06-26T12:39:19;7.00;;;2.00;;
62707;SDS011;48769;51.624;5.886;2023-06-26T12:41:49;3.72;;;1.17;;
62707;SDS011;48769;51.624;5.886;2023-06-26T12:44:22;7.80;;;1.70;;
62707;SDS011;48769;51.624;5.886;2023-06-26T12:46:53;8.55;;;1.52;;
62707;SDS011;48769;51.624;5.886;2023-06-26T12:49:20;3.60;;;1.27;;
62707;SDS011;48769;51.624;5.886;2023-06-26T12:51:46;5.45;;;1.65;;
62707;SDS011;48769;51.624;5.886;2023-06-26T12:54:12;5.97;;;1.75;;
62707;SDS011;48769;51.624;5.886;2023-06-26T12:56:37;4.30;;;1.17;;
62707;SDS011;48769;51.624;5.886;2023-06-26T12:59:02;6.65;;;1.30;;
62707;SDS011;48769;51.624;5.886;2023-06-26T13:01:28;7.78;;;1.50;;
62707;SDS011;48769;51.624;5.886;2023-06-26T13:03:53;4.30;;;1.50;;
62707;SDS011;48769;51.624;5.886;2023-06-26T13:06:19;6.78;;;1.20;;
62707;SDS011;48769;51.624;5.886;2023-06-26T13:08:45;1.95;;;1.33;;
62707;SDS011;48769;51.624;5.886;2023-06-26T13:11:10;2.30;;;1.40;;
62707;SDS011;48769;51.624;5.886;2023-06-26T13:13:35;4.40;;;1.08;;
62707;SDS011;48769;51.624;5.886;2023-06-26T13:16:00;3.97;;;1.60;;
62707;SDS011;48769;51.624;5.886;2023-06-26T13:18:27;2.95;;;1.38;;
62707;SDS011;48769;51.624;5.886;2023-06-26T13:20:52;3.65;;;1.50;;
62707;SDS011;48769;51.624;5.886;2023-06-26T13:23:17;2.28;;;1.30;;
62707;SDS011;48769;51.624;5.886;2023-06-26T13:25:44;3.78;;;1.17;;
62707;SDS011;48769;51.624;5.886;2023-06-26T13:28:09;2.63;;;1.67;;
62707;SDS011;48769;51.624;5.886;2023-06-26T13:30:35;4.93;;;1.70;;
62707;SDS011;48769;51.624;5.886;2023-06-26T13:33:00;5.30;;;2.05;;
62707;SDS011;48769;51.624;5.886;2023-06-26T13:35:25;4.05;;;1.88;;
62707;SDS011;48769;51.624;5.886;2023-06-26T13:37:51;7.97;;;1.73;;
62707;SDS011;48769;51.624;5.886;2023-06-26T13:40:16;5.28;;;2.28;;
62707;SDS011;48769;51.624;5.886;2023-06-26T13:42:41;6.03;;;1.58;;
62707;SDS011;48769;51.624;5.886;2023-06-26T13:45:08;4.20;;;1.52;;
62707;SDS011;48769;51.624;5.886;2023-06-26T13:47:41;3.95;;;1.50;;
62707;SDS011;48769;51.624;5.886;2023-06-26T13:50:15;7.03;;;1.42;;
62707;SDS011;48769;51.624;5.886;2023-06-26T13:52:41;7.20;;;1.75;;
62707;SDS011;48769;51.624;5.886;2023-06-26T13:55:06;3.72;;;1.52;;
62707;SDS011;48769;51.624;5.886;2023-06-26T13:57:32;6.05;;;2.25;;
62707;SDS011;48769;51.624;5.886;2023-06-26T13:59:57;7.78;;;2.40;;
62707;SDS011;48769;51.624;5.886;2023-06-26T14:02:23;5.70;;;1.85;;
62707;SDS011;48769;51.624;5.886;2023-06-26T14:04:48;5.22;;;1.48;;
62707;SDS011;48769;51.624;5.886;2023-06-26T14:07:13;3.53;;;1.35;;
62707;SDS011;48769;51.624;5.886;2023-06-26T14:09:39;4.53;;;1.63;;
62707;SDS011;48769;51.624;5.886;2023-06-26T14:12:05;3.45;;;1.23;;
62707;SDS011;48769;51.624;5.886;2023-06-26T14:14:32;5.00;;;1.65;;
62707;SDS011;48769;51.624;5.886;2023-06-26T14:16:58;5.10;;;1.45;;
62707;SDS011;48769;51.624;5.886;2023-06-26T14:19:24;6.47;;;1.63;;
62707;SDS011;48769;51.624;5.886;2023-06-26T14:21:50;5.22;;;1.63;;
62707;SDS011;48769;51.624;5.886;2023-06-26T14:24:16;3.53;;;1.40;;
62707;SDS011;48769;51.624;5.886;2023-06-26T14:26:41;4.05;;;1.55;;
62707;SDS011;48769;51.624;5.886;2023-06-26T14:29:06;10.10;;;1.92;;
62707;SDS011;48769;51.624;5.886;2023-06-26T14:31:32;5.93;;;1.55;;
62707;SDS011;48769;51.624;5.886;2023-06-26T14:33:57;4.32;;;1.42;;
62707;SDS011;48769;51.624;5.886;2023-06-26T14:36:24;9.27;;;1.60;;
62707;SDS011;48769;51.624;5.886;2023-06-26T14:38:49;5.53;;;1.45;;
62707;SDS011;48769;51.624;5.886;2023-06-26T14:41:15;7.78;;;1.55;;
62707;SDS011;48769;51.624;5.886;2023-06-26T14:43:40;4.95;;;1.83;;
62707;SDS011;48769;51.624;5.886;2023-06-26T14:46:06;4.40;;;1.30;;
62707;SDS011;48769;51.624;5.886;2023-06-26T14:48:31;5.43;;;1.70;;
62707;SDS011;48769;51.624;5.886;2023-06-26T14:50:56;3.22;;;1.33;;
62707;SDS011;48769;51.624;5.886;2023-06-26T14:53:22;3.55;;;1.63;;
62707;SDS011;48769;51.624;5.886;2023-06-26T14:55:47;3.85;;;1.65;;
62707;SDS011;48769;51.624;5.886;2023-06-26T14:58:12;4.93;;;1.52;;
62707;SDS011;48769;51.624;5.886;2023-06-26T15:00:38;4.75;;;1.30;;